createdAt,value
2019-02-04T00:05:11.926Z,16
2019-02-04T00:10:34.663Z,15
2019-02-04T00:15:58.269Z,15.5
2019-02-04T00:21:21.359Z,15.2
2019-02-04T00:26:51.232Z,16.9
2019-02-04T00:32:07.962Z,17
2019-02-04T00:37:30.637Z,16.5
2019-02-04T00:42:53.309Z,16.9
2019-02-04T00:48:15.948Z,17.1
2019-02-04T00:53:39.131Z,16.9
2019-02-04T00:59:01.916Z,17.6
2019-02-04T01:04:24.738Z,17.5
2019-02-04T01:09:47.436Z,19.6
2019-02-04T01:15:10.199Z,21.1
2019-02-04T01:20:32.893Z,19.200001
2019-02-04T01:25:55.571Z,20.1
2019-02-04T01:31:18.234Z,19.6
2019-02-04T01:36:41.398Z,19.6
2019-02-04T01:42:04.407Z,20.799999
2019-02-04T01:47:27.909Z,21.200001
2019-02-04T01:52:50.679Z,21.799999
2019-02-04T01:58:13.460Z,21.799999
2019-02-04T02:03:36.103Z,22.299999
2019-02-04T02:08:59.071Z,22
2019-02-04T02:14:22.117Z,20.1
2019-02-04T02:19:44.776Z,21.1
2019-02-04T02:25:08.145Z,22.299999
2019-02-04T02:30:30.991Z,22.799999
2019-02-04T02:35:53.486Z,20.799999
2019-02-04T02:41:16.217Z,19.1
2019-02-04T02:46:39.004Z,21.799999
2019-02-04T02:52:01.783Z,20.700001
2019-02-04T02:57:24.969Z,20.4
2019-02-04T03:02:48.101Z,21.200001
2019-02-04T03:08:10.754Z,24
2019-02-04T03:13:33.480Z,25.799999
2019-02-04T03:18:56.632Z,27.4
2019-02-04T03:24:19.524Z,25.299999
2019-02-04T03:29:42.329Z,26
2019-02-04T03:35:05.711Z,27.4
2019-02-04T03:40:28.633Z,30
2019-02-04T03:45:51.446Z,27.200001
2019-02-04T03:51:14.235Z,29.5
2019-02-04T03:56:37.034Z,30.6
2019-02-04T04:01:59.767Z,33.700001
2019-02-04T04:07:23.535Z,31.799999
2019-02-04T04:12:47.011Z,34.200001
2019-02-04T04:18:15.696Z,34.5
2019-02-04T04:23:34.288Z,32.799999
2019-02-04T04:28:57.086Z,34.200001
2019-02-04T04:34:19.961Z,33.599998
2019-02-04T04:39:42.745Z,34.5
2019-02-04T04:45:05.538Z,35.200001
2019-02-04T04:50:28.432Z,37.299999
2019-02-04T04:55:51.123Z,36.700001
2019-02-04T05:01:14.171Z,35.599998
2019-02-04T05:06:36.919Z,34.5
2019-02-04T05:12:00.453Z,33.5
2019-02-04T05:17:23.724Z,31.200001
2019-02-04T05:22:47.336Z,29.799999
2019-02-04T05:28:10.160Z,28.799999
2019-02-04T05:33:32.868Z,29.4
2019-02-04T05:38:55.575Z,29.200001
2019-02-04T05:44:18.778Z,26.9
2019-02-04T05:49:50.809Z,28.6
2019-02-04T05:55:13.747Z,29.200001
2019-02-04T06:00:48.225Z,30.4
2019-02-04T06:06:23.131Z,29.299999
2019-02-04T06:11:55.733Z,33
2019-02-04T06:17:18.506Z,31.799999
2019-02-04T06:22:41.278Z,32
2019-02-04T06:28:13.654Z,31.299999
2019-02-04T06:33:46.201Z,32.299999
2019-02-04T06:39:17.542Z,32.5
2019-02-04T06:44:40.245Z,31.1
2019-02-04T06:50:03.324Z,38.700001
2019-02-04T06:55:35.805Z,35.400002
2019-02-04T07:01:12.227Z,34.900002
2019-02-04T07:06:45.695Z,37.799999
2019-02-04T07:12:09.187Z,37.700001
2019-02-04T07:17:41.254Z,37.599998
2019-02-04T07:23:13.082Z,36.900002
2019-02-04T07:28:46.786Z,38.299999
2019-02-04T07:34:19.349Z,35.5
2019-02-04T07:39:52.379Z,33.599998
2019-02-04T07:45:15.103Z,35.099998
2019-02-04T07:50:47.518Z,34.400002
2019-02-04T07:56:21.605Z,33.299999
2019-02-04T08:01:53.581Z,33.799999
2019-02-04T08:07:27.180Z,34.799999
2019-02-04T08:13:01.753Z,32.700001
2019-02-04T08:18:54.023Z,31.1
2019-02-04T08:24:28.237Z,30.1
2019-02-04T08:30:02.508Z,28.700001
2019-02-04T08:35:35.777Z,28.200001
2019-02-04T08:41:08.514Z,26.299999
2019-02-04T08:46:41.552Z,26
2019-02-04T08:52:14.563Z,24.4
2019-02-04T08:57:46.800Z,20.9
2019-02-04T09:03:18.453Z,20.6
2019-02-04T09:08:50.310Z,19.9
2019-02-04T09:14:21.911Z,18.299999
2019-02-04T09:19:54.183Z,18.5
2019-02-04T09:25:16.982Z,16.799999
2019-02-04T09:30:40.603Z,15.5
2019-02-04T09:36:03.324Z,15.5
2019-02-04T09:41:26.063Z,14.7
2019-02-04T09:46:49.070Z,15.1
2019-02-04T09:52:11.742Z,14.7
2019-02-04T09:57:34.930Z,13.5
2019-02-04T10:02:57.666Z,13.4
2019-02-04T10:08:21.336Z,12.3
2019-02-04T10:13:44.813Z,13.1
2019-02-04T10:19:08.378Z,12.7
2019-02-04T10:24:30.991Z,11.7
2019-02-04T10:29:53.729Z,11.4
2019-02-04T10:35:17.412Z,11.3
2019-02-04T10:40:40.428Z,12
2019-02-04T10:46:04.750Z,10.7
2019-02-04T10:51:28.324Z,10.3
2019-02-04T10:56:52.197Z,10.3
2019-02-04T11:02:14.995Z,10.6
2019-02-04T11:07:37.777Z,10.2
2019-02-04T11:13:00.699Z,10.2
2019-02-04T11:18:23.496Z,9.1
2019-02-04T11:23:46.379Z,8.4
2019-02-04T11:29:09.090Z,9.2
2019-02-04T11:34:31.853Z,9.1
2019-02-04T11:39:54.546Z,8.6
2019-02-04T11:45:17.316Z,8.9
2019-02-04T11:50:40.810Z,8.8
2019-02-04T11:56:03.867Z,8.2
2019-02-04T12:01:26.527Z,8.7
2019-02-04T12:06:49.560Z,8.5
2019-02-04T12:12:12.504Z,7.9
2019-02-04T12:17:35.209Z,7.9
2019-02-04T12:22:57.881Z,8.1
2019-02-04T12:28:21.139Z,7.5
2019-02-04T12:33:44.783Z,7.8
2019-02-04T12:39:07.590Z,8
2019-02-04T12:44:31.194Z,7.9
2019-02-04T12:49:54.116Z,7.1
2019-02-04T12:55:16.451Z,6.9
2019-02-04T13:00:39.935Z,7.8
2019-02-04T13:06:02.600Z,10.2
2019-02-04T13:11:25.982Z,9.6
2019-02-04T13:16:48.683Z,8.5
2019-02-04T13:22:12.178Z,12.2
2019-02-04T13:27:34.922Z,10.4
2019-02-04T13:32:58.316Z,14.3
2019-02-04T13:38:22.189Z,26.4
2019-02-04T13:43:45.537Z,21.1
2019-02-04T13:49:08.389Z,23.299999
2019-02-04T13:54:31.036Z,20
2019-02-04T13:59:54.037Z,16.200001
2019-02-04T14:05:16.689Z,8
2019-02-04T14:10:39.422Z,9.6
2019-02-04T14:16:02.119Z,9.1
2019-02-04T14:21:25.114Z,8.4
2019-02-04T14:26:47.820Z,8.4
2019-02-04T14:32:10.467Z,7.4
2019-02-04T14:37:33.285Z,7.3
2019-02-04T14:42:55.986Z,6.6
2019-02-04T14:48:19.207Z,6.3
2019-02-04T14:53:41.869Z,6.5
2019-02-04T14:59:04.610Z,6.2
2019-02-04T15:04:27.287Z,6.4
2019-02-04T15:09:50.146Z,5.9
2019-02-04T15:15:12.826Z,6
2019-02-04T15:20:35.536Z,6.3
2019-02-04T15:25:58.217Z,5.9
2019-02-04T15:31:21.019Z,5.8
2019-02-04T15:36:43.750Z,6.6
2019-02-04T15:42:06.496Z,6.3
2019-02-04T15:47:30.345Z,7.6
2019-02-04T15:52:53.005Z,6.9
2019-02-04T15:58:16.230Z,6.3
2019-02-04T16:03:38.892Z,6.3
2019-02-04T16:09:01.664Z,6.1
2019-02-04T16:14:25.958Z,6.8
2019-02-04T16:19:48.949Z,6.3
2019-02-04T16:25:11.603Z,6.4
2019-02-04T16:30:34.345Z,6.1
2019-02-04T16:35:57.036Z,6.3
2019-02-04T16:41:19.757Z,6.8
2019-02-04T16:46:43.192Z,5.6
2019-02-04T16:52:05.922Z,6.1
2019-02-04T16:57:29.169Z,5.8
2019-02-04T17:02:52.228Z,6.3
2019-02-04T17:08:15.074Z,6.3
2019-02-04T17:13:39.885Z,5.6
2019-02-04T17:19:02.813Z,5.5
2019-02-04T17:24:25.689Z,6.2
2019-02-04T17:29:49.291Z,5.8
2019-02-04T17:35:12.310Z,6
2019-02-04T17:40:35.028Z,6.2
2019-02-04T17:45:57.900Z,6
2019-02-04T17:51:20.834Z,6.1
2019-02-04T17:56:43.552Z,6.1
2019-02-04T18:02:06.672Z,6.2
2019-02-04T18:07:30.577Z,5.7
2019-02-04T18:12:53.429Z,5.9
2019-02-04T18:18:16.191Z,5.5
2019-02-04T18:23:45.484Z,5.5
2019-02-04T18:29:02.557Z,5.9
2019-02-04T18:34:26.188Z,4.9
2019-02-04T18:39:49.558Z,5
2019-02-04T18:45:12.264Z,5
2019-02-04T18:50:35.191Z,5.3
2019-02-04T18:55:58.067Z,4.8
2019-02-04T19:01:21.107Z,4.1
2019-02-04T19:06:47.530Z,5
2019-02-04T19:12:07.990Z,5.3
2019-02-04T19:17:31.762Z,5.4
2019-02-04T19:22:54.672Z,5.3
2019-02-04T19:28:26.670Z,4.7
2019-02-04T19:33:49.300Z,5
2019-02-04T19:39:12.166Z,4.8
2019-02-04T19:44:34.989Z,5.1
2019-02-04T19:49:57.763Z,4.1
2019-02-04T19:55:20.511Z,4.7
2019-02-04T20:00:43.194Z,4.5
2019-02-04T20:06:07.300Z,4.5
2019-02-04T20:11:30.098Z,4.6
2019-02-04T20:16:52.770Z,4.9
2019-02-04T20:22:15.400Z,4.5
2019-02-04T20:27:38.130Z,4.4
2019-02-04T20:33:01.821Z,4.5
2019-02-04T20:38:27.250Z,4.1
2019-02-04T20:43:48.481Z,4.7
2019-02-04T20:49:11.279Z,4.2
2019-02-04T20:54:44.527Z,4.2
2019-02-04T20:59:58.462Z,4.4
2019-02-04T21:05:21.159Z,4.2
2019-02-04T21:10:44.154Z,3.9
2019-02-04T21:16:06.868Z,4.4
2019-02-04T21:21:29.638Z,4.6
2019-02-04T21:26:52.357Z,4.7
2019-02-04T21:32:15.379Z,4.7
2019-02-04T21:37:38.111Z,4.8
2019-02-04T21:43:01.010Z,5
2019-02-04T21:48:23.991Z,5.1
2019-02-04T21:53:46.810Z,4.9
2019-02-04T21:59:09.872Z,4.9
2019-02-04T22:04:32.707Z,4.9
2019-02-04T22:09:55.965Z,5
2019-02-04T22:15:18.765Z,5.4
2019-02-04T22:20:41.465Z,5.6
2019-02-04T22:26:04.163Z,5.8
2019-02-04T22:31:27.014Z,5.8
2019-02-04T22:36:49.800Z,5.7
2019-02-04T22:42:13.308Z,5.4
2019-02-04T22:47:35.997Z,5.1
2019-02-04T22:53:01.825Z,5.5
2019-02-04T22:58:23.301Z,5.8
2019-02-04T23:03:46.049Z,6.3
2019-02-04T23:09:09.172Z,6.3
2019-02-04T23:14:31.950Z,6
2019-02-04T23:19:54.646Z,6.8
2019-02-04T23:25:18.275Z,6.8
2019-02-04T23:30:40.991Z,6.7
2019-02-04T23:36:03.677Z,6.7
2019-02-04T23:41:26.507Z,6.8
2019-02-04T23:46:49.189Z,6.8
2019-02-04T23:52:12.008Z,7.3
2019-02-04T23:57:34.716Z,6.8
